Time;durP1;ratioP1;P1;durP2;ratioP2;P2;SDS_P1;SDS_P2;PMS_P1;PMS_P2;Temp;Humidity;BMP_temperature;BMP_pressure;BME280_temperature;BME280_humidity;BME280_pressure;Samples;Min_cycle;Max_cycle;Signal;HPM_P1;HPM_P2
2021/05/01 17:17:10;;;;;;;26.95;19.83;;;;;;;;;;5148131;27;20328;-75
2021/05/01 17:19:36;;;;;;;24.65;20.27;;;;;;;;;;5146952;27;20026;-76
2021/05/01 17:22:02;;;;;;;26.73;21.13;;;;;;;;;;5148254;27;20023;-78
2021/05/01 17:24:28;;;;;;;26.58;19.98;;;;;;;;;;5148744;27;20030;-76
2021/05/01 17:26:55;;;;;;;25.15;20.20;;;;;;;;;;5148409;27;20038;-73
2021/05/01 17:29:21;;;;;;;22.70;18.92;;;;;;;;;;5146873;27;20035;-73
2021/05/01 17:31:47;;;;;;;25.58;21.00;;;;;;;;;;5146210;27;20057;-73
2021/05/01 17:34:13;;;;;;;27.23;20.88;;;;;;;;;;5139592;27;20114;-73
2021/05/01 17:36:39;;;;;;;30.25;21.40;;;;;;;;;;5146126;27;20031;-73
2021/05/01 17:39:06;;;;;;;30.42;22.10;;;;;;;;;;5146204;27;20030;-74
2021/05/01 17:41:32;;;;;;;27.80;21.80;;;;;;;;;;5133273;27;20046;-74
2021/05/01 17:43:58;;;;;;;30.65;22.05;;;;;;;;;;5124242;27;20043;-75
2021/05/01 17:46:24;;;;;;;26.30;21.65;;;;;;;;;;5107583;28;20028;-76
2021/05/01 17:48:50;;;;;;;27.23;20.20;;;;;;;;;;5126758;27;20030;-77
2021/05/01 17:51:16;;;;;;;28.33;20.40;;;;;;;;;;5125561;27;20072;-77
2021/05/01 17:53:42;;;;;;;26.25;21.02;;;;;;;;;;5125858;27;20027;-75
2021/05/01 17:56:08;;;;;;;29.75;20.70;;;;;;;;;;5125378;27;20096;-77
2021/05/01 17:58:37;;;;;;;30.33;22.08;;;;;;;;;;5127710;27;20024;-77
2021/05/01 18:01:03;;;;;;;30.48;22.02;;;;;;;;;;5127779;27;20080;-78
2021/05/01 18:03:31;;;;;;;31.02;23.25;;;;;;;;;;5118148;22;20693;-72
2021/05/01 18:05:57;;;;;;;32.15;22.63;;;;;;;;;;5082817;28;20056;-71
2021/05/01 18:08:23;;;;;;;31.35;21.70;;;;;;;;;;5084834;28;20056;-72
2021/05/01 18:10:49;;;;;;;29.85;22.77;;;;;;;;;;5083210;28;20518;-71
2021/05/01 18:13:15;;;;;;;34.22;23.52;;;;;;;;;;5090142;28;20102;-72
2021/05/01 18:15:41;;;;;;;31.23;24.30;;;;;;;;;;5094986;28;20526;-71
2021/05/01 18:18:07;;;;;;;30.02;23.55;;;;;;;;;;5101480;28;20106;-71
2021/05/01 18:20:33;;;;;;;31.38;23.42;;;;;;;;;;5105935;28;20481;-72
2021/05/01 18:22:59;;;;;;;32.28;24.80;;;;;;;;;;5104196;28;20074;-71
2021/05/01 18:25:26;;;;;;;33.45;24.85;;;;;;;;;;5102967;28;20399;-71
2021/05/01 18:27:52;;;;;;;33.88;25.08;;;;;;;;;;5095274;28;20016;-71
2021/05/01 18:30:18;;;;;;;31.15;25.38;;;;;;;;;;5086478;28;20154;-71
2021/05/01 18:32:45;;;;;;;36.55;26.05;;;;;;;;;;5081525;28;20020;-71
2021/05/01 18:35:13;;;;;;;36.30;27.25;;;;;;;;;;5082124;28;20029;-71
2021/05/01 18:37:40;;;;;;;35.80;26.73;;;;;;;;;;5081632;28;20105;-71
2021/05/01 18:40:07;;;;;;;37.05;27.23;;;;;;;;;;5079407;28;20012;-71
2021/05/01 18:42:34;;;;;;;45.30;31.77;;;;;;;;;;5077251;28;20020;-72
2021/05/01 18:45:00;;;;;;;36.83;27.50;;;;;;;;;;5079719;28;20021;-73
2021/05/01 18:47:26;;;;;;;38.90;29.15;;;;;;;;;;5082546;28;20012;-73
2021/05/01 18:49:52;;;;;;;42.72;29.90;;;;;;;;;;5082262;28;20028;-73
2021/05/01 18:52:21;;;;;;;40.92;30.70;;;;;;;;;;5082693;28;20544;-74
2021/05/01 18:54:47;;;;;;;40.83;29.92;;;;;;;;;;5083377;28;20119;-73
2021/05/01 18:57:13;;;;;;;37.22;27.65;;;;;;;;;;5082147;28;20023;-72
2021/05/01 18:59:39;;;;;;;36.63;28.55;;;;;;;;;;5083765;28;20054;-72
2021/05/01 19:02:05;;;;;;;38.28;28.23;;;;;;;;;;5082493;28;20103;-72
2021/05/01 19:04:32;;;;;;;38.25;28.02;;;;;;;;;;5085414;28;20028;-72
2021/05/01 19:06:58;;;;;;;38.40;28.80;;;;;;;;;;5084296;28;20083;-72
2021/05/01 19:09:24;;;;;;;43.45;29.42;;;;;;;;;;5085384;28;20036;-71
2021/05/01 19:11:52;;;;;;;36.72;27.92;;;;;;;;;;5086586;28;20025;-71
2021/05/01 19:14:23;;;;;;;41.58;29.33;;;;;;;;;;5095007;28;20059;-71
2021/05/01 19:16:49;;;;;;;41.88;29.38;;;;;;;;;;5094920;28;20059;-72
2021/05/01 19:19:16;;;;;;;43.17;30.27;;;;;;;;;;5083102;28;20088;-71
2021/05/01 19:21:43;;;;;;;40.72;28.92;;;;;;;;;;5085877;28;20019;-72
2021/05/01 19:24:11;;;;;;;42.67;29.88;;;;;;;;;;5082674;28;20032;-72
2021/05/01 19:26:38;;;;;;;41.53;28.58;;;;;;;;;;5098079;28;20166;-71
2021/05/01 19:29:04;;;;;;;43.72;31.05;;;;;;;;;;5086373;28;20039;-71
2021/05/01 19:31:30;;;;;;;40.60;30.02;;;;;;;;;;5083362;28;20179;-71
2021/05/01 19:33:57;;;;;;;48.10;32.35;;;;;;;;;;5087806;28;20024;-71
2021/05/01 19:36:23;;;;;;;44.58;31.60;;;;;;;;;;5093795;28;20032;-69
2021/05/01 19:38:49;;;;;;;42.17;30.88;;;;;;;;;;5092911;28;20105;-70
2021/05/01 19:41:16;;;;;;;46.30;30.85;;;;;;;;;;5093391;28;20024;-70
2021/05/01 19:43:43;;;;;;;43.75;31.73;;;;;;;;;;5093632;28;20400;-71
2021/05/01 19:46:14;;;;;;;45.88;32.58;;;;;;;;;;5093473;28;20024;-70
2021/05/01 19:48:40;;;;;;;45.83;32.90;;;;;;;;;;5093518;28;20046;-70
2021/05/01 19:51:06;;;;;;;47.10;32.35;;;;;;;;;;5084308;28;20025;-70
2021/05/01 19:53:33;;;;;;;45.58;30.88;;;;;;;;;;5083102;28;20043;-70
2021/05/01 19:56:00;;;;;;;43.40;31.30;;;;;;;;;;5082808;28;20111;-69
2021/05/01 19:58:27;;;;;;;45.70;32.08;;;;;;;;;;5087246;28;20507;-72
2021/05/01 20:00:53;;;;;;;42.53;31.05;;;;;;;;;;5086301;28;20081;-70
2021/05/01 20:03:19;;;;;;;46.58;31.55;;;;;;;;;;5091216;28;20028;-70
2021/05/01 20:05:45;;;;;;;46.20;32.58;;;;;;;;;;5093898;28;20039;-70
2021/05/01 20:08:11;;;;;;;46.13;33.42;;;;;;;;;;5093907;28;20031;-70
2021/05/01 20:10:37;;;;;;;47.20;31.70;;;;;;;;;;5095635;28;20392;-70
2021/05/01 20:13:05;;;;;;;43.67;31.15;;;;;;;;;;5098468;28;20020;-69
2021/05/01 20:15:31;;;;;;;43.85;31.25;;;;;;;;;;5100862;28;20032;-71
2021/05/01 20:17:57;;;;;;;46.15;32.83;;;;;;;;;;5101534;28;20048;-70
2021/05/01 20:20:23;;;;;;;48.65;32.10;;;;;;;;;;5087202;28;20028;-69
2021/05/01 20:22:51;;;;;;;49.80;33.60;;;;;;;;;;5102975;28;20028;-69
2021/05/01 20:25:17;;;;;;;51.42;34.83;;;;;;;;;;5100868;28;20086;-69
2021/05/01 20:27:43;;;;;;;58.83;41.75;;;;;;;;;;5096961;28;20032;-71
2021/05/01 20:30:10;;;;;;;57.60;39.28;;;;;;;;;;5092930;28;20481;-72
2021/05/01 20:32:41;;;;;;;53.38;37.33;;;;;;;;;;5093336;28;20502;-69
2021/05/01 20:35:08;;;;;;;57.58;38.10;;;;;;;;;;5092745;28;20484;-70
2021/05/01 20:37:34;;;;;;;51.72;34.70;;;;;;;;;;5086381;28;20025;-70
2021/05/01 20:40:03;;;;;;;49.13;33.10;;;;;;;;;;5083606;28;20021;-70
2021/05/01 20:42:29;;;;;;;56.45;35.60;;;;;;;;;;5082594;28;20013;-70
2021/05/01 20:44:55;;;;;;;52.17;35.10;;;;;;;;;;5082475;28;20096;-69
2021/05/01 20:47:21;;;;;;;55.45;34.70;;;;;;;;;;5084389;28;20028;-69
2021/05/01 20:49:47;;;;;;;52.85;34.47;;;;;;;;;;5083313;28;20082;-70
2021/05/01 20:52:13;;;;;;;56.08;36.20;;;;;;;;;;5082947;28;20059;-70
2021/05/01 20:54:39;;;;;;;54.92;37.38;;;;;;;;;;5083428;28;20052;-68
2021/05/01 20:57:05;;;;;;;61.47;41.05;;;;;;;;;;5084674;28;20024;-68
2021/05/01 20:59:31;;;;;;;63.45;40.15;;;;;;;;;;5082631;28;20016;-69
2021/05/01 21:01:59;;;;;;;64.70;39.05;;;;;;;;;;5082557;28;20020;-68
2021/05/01 21:04:28;;;;;;;56.67;38.10;;;;;;;;;;5070631;28;20033;-68
2021/05/01 21:06:54;;;;;;;55.78;37.63;;;;;;;;;;5078700;28;20103;-68
2021/05/01 21:09:21;;;;;;;57.97;37.97;;;;;;;;;;5091488;28;20028;-70
2021/05/01 21:11:47;;;;;;;48.70;33.10;;;;;;;;;;5092024;28;20088;-68
2021/05/01 21:14:14;;;;;;;53.55;33.80;;;;;;;;;;5094034;28;20032;-69
2021/05/01 21:16:41;;;;;;;47.30;33.08;;;;;;;;;;5093281;28;20408;-70
2021/05/01 21:19:07;;;;;;;45.85;31.60;;;;;;;;;;5092530;28;20020;-69
2021/05/01 21:21:33;;;;;;;43.05;31.77;;;;;;;;;;5090218;28;20028;-69
2021/05/01 21:23:59;;;;;;;46.38;32.05;;;;;;;;;;5091573;28;20416;-70
2021/05/01 21:26:25;;;;;;;49.15;33.08;;;;;;;;;;5072850;28;20036;-67
2021/05/01 21:28:52;;;;;;;48.22;34.22;;;;;;;;;;5091872;28;20024;-70
2021/05/01 21:31:19;;;;;;;50.88;35.60;;;;;;;;;;5089980;28;20038;-68
2021/05/01 21:33:45;;;;;;;52.13;35.22;;;;;;;;;;5091415;28;20020;-70
2021/05/01 21:36:12;;;;;;;51.10;35.63;;;;;;;;;;5090080;28;20028;-68
2021/05/01 21:38:39;;;;;;;48.05;34.38;;;;;;;;;;5073563;28;20054;-68
2021/05/01 21:41:05;;;;;;;52.88;35.53;;;;;;;;;;5091344;28;20074;-68
2021/05/01 21:43:31;;;;;;;50.22;33.22;;;;;;;;;;5090805;28;20032;-68
2021/05/01 21:45:58;;;;;;;53.53;35.15;;;;;;;;;;5091591;28;20389;-68
2021/05/01 21:48:24;;;;;;;50.63;33.25;;;;;;;;;;5091172;28;20032;-70
2021/05/01 21:50:50;;;;;;;52.53;32.72;;;;;;;;;;5090889;28;20396;-69
2021/05/01 21:53:16;;;;;;;50.20;33.15;;;;;;;;;;5091087;28;20076;-68
2021/05/01 21:55:44;;;;;;;51.85;35.47;;;;;;;;;;5089797;28;20032;-68
2021/05/01 21:58:10;;;;;;;48.63;33.08;;;;;;;;;;5091170;28;20040;-68
2021/05/01 22:00:48;;;;;;;45.42;32.65;;;;;;;;;;5090729;28;20016;-70
2021/05/01 22:03:19;;;;;;;49.42;33.53;;;;;;;;;;5093778;28;20040;-69
2021/05/01 22:05:45;;;;;;;43.05;30.85;;;;;;;;;;5093934;28;20028;-68
2021/05/01 22:08:15;;;;;;;46.65;31.92;;;;;;;;;;5094637;28;20035;-68
2021/05/01 22:10:41;;;;;;;52.67;34.13;;;;;;;;;;5093423;28;20031;-69
2021/05/01 22:13:09;;;;;;;52.88;32.92;;;;;;;;;;5095117;28;20484;-69
2021/05/01 22:15:35;;;;;;;51.30;34.20;;;;;;;;;;5093927;28;20024;-69
2021/05/01 22:18:01;;;;;;;51.38;32.97;;;;;;;;;;5094366;28;20415;-69
2021/05/01 22:20:45;;;;;;;51.45;34.92;;;;;;;;;;5094981;28;20385;-69
2021/05/01 22:26:01;;;;;;;52.53;35.15;;;;;;;;;;5074872;28;20414;-68
2021/05/01 22:28:27;;;;;;;47.83;33.13;;;;;;;;;;5094272;28;20540;-69
2021/05/01 22:30:53;;;;;;;51.58;34.20;;;;;;;;;;5094198;28;20034;-69
2021/05/01 22:33:20;;;;;;;51.10;34.92;;;;;;;;;;5093406;28;20024;-68
2021/05/01 22:35:46;;;;;;;49.17;34.13;;;;;;;;;;5094693;28;20110;-69
2021/05/01 22:38:12;;;;;;;48.83;33.17;;;;;;;;;;5094049;28;20028;-69
2021/05/01 22:40:38;;;;;;;47.10;31.55;;;;;;;;;;5093985;28;20461;-69
2021/05/01 22:43:05;;;;;;;41.22;28.63;;;;;;;;;;5094566;28;20436;-69
2021/05/01 22:45:31;;;;;;;39.13;28.38;;;;;;;;;;5094685;28;20103;-69
2021/05/01 22:47:57;;;;;;;41.35;28.55;;;;;;;;;;5092930;28;20036;-69
2021/05/01 22:50:23;;;;;;;39.92;27.60;;;;;;;;;;5093495;28;20028;-69
2021/05/01 22:52:49;;;;;;;37.75;27.58;;;;;;;;;;5092872;28;20028;-69
2021/05/01 22:55:15;;;;;;;34.35;25.88;;;;;;;;;;5094243;28;20388;-69
2021/05/01 22:57:42;;;;;;;33.95;25.50;;;;;;;;;;5093984;28;20020;-69
2021/05/01 23:00:09;;;;;;;32.50;24.05;;;;;;;;;;5092306;28;20020;-70
2021/05/01 23:02:36;;;;;;;38.47;26.50;;;;;;;;;;5094104;28;20408;-69
2021/05/01 23:05:03;;;;;;;35.08;25.50;;;;;;;;;;5094165;28;20028;-69
2021/05/01 23:07:29;;;;;;;33.25;26.52;;;;;;;;;;5080378;28;20025;-69
2021/05/01 23:09:55;;;;;;;36.33;25.60;;;;;;;;;;5072161;28;20035;-69
2021/05/01 23:12:21;;;;;;;29.50;22.90;;;;;;;;;;5073797;28;20028;-69
